createdAt,value
2018-12-07T00:01:53.639Z,99.56
2018-12-07T00:06:07.654Z,99.45
2018-12-07T00:10:21.320Z,99.34
2018-12-07T00:14:34.958Z,99.22
2018-12-07T00:18:46.861Z,99.23
2018-12-07T00:23:03.593Z,99.14
2018-12-07T00:27:15.968Z,99.06
2018-12-07T00:31:29.358Z,99.06
2018-12-07T00:35:42.920Z,99.07
2018-12-07T00:39:59.391Z,99.09
2018-12-07T00:44:09.314Z,98.94
2018-12-07T00:48:26.480Z,98.96
2018-12-07T00:52:42.025Z,98.83
2018-12-07T00:56:53.716Z,98.80
2018-12-07T01:01:07.209Z,98.82
2018-12-07T01:05:19.083Z,98.79
2018-12-07T01:09:29.183Z,98.87
2018-12-07T01:13:44.636Z,98.94
2018-12-07T01:17:51.561Z,99.05
2018-12-07T01:22:03.951Z,99.23
2018-12-07T01:26:16.678Z,99.30
2018-12-07T01:30:28.465Z,99.42
2018-12-07T01:34:59.621Z,99.53
2018-12-07T01:39:17.054Z,99.59
2018-12-07T01:43:36.280Z,99.60
2018-12-07T01:47:54.058Z,99.63
2018-12-07T01:52:07.702Z,99.73
2018-12-07T01:56:23.047Z,99.75
2018-12-07T02:00:41.389Z,99.86
2018-12-07T02:04:51.448Z,99.92
2018-12-07T02:09:03.378Z,99.95
2018-12-07T02:13:21.564Z,99.99
2018-12-07T02:17:37.074Z,99.96
2018-12-07T02:21:51.886Z,99.88
2018-12-07T02:26:01.995Z,99.85
2018-12-07T02:30:18.003Z,99.86
2018-12-07T02:34:28.835Z,99.90
2018-12-07T02:38:37.061Z,99.90
2018-12-07T02:42:53.171Z,99.92
2018-12-07T02:47:08.937Z,99.96
2018-12-07T02:51:24.615Z,99.90
2018-12-07T02:55:32.429Z,99.86
2018-12-07T02:59:41.597Z,99.88
2018-12-07T03:08:53.858Z,99.74
2018-12-07T03:13:06.760Z,99.57
2018-12-07T03:17:16.677Z,99.55
2018-12-07T03:21:27.461Z,99.43
2018-12-07T03:25:43.273Z,99.31
2018-12-07T03:29:56.161Z,99.40
2018-12-07T03:34:07.334Z,99.28
2018-12-07T03:38:27.045Z,99.39
2018-12-07T03:42:49.792Z,99.29
2018-12-07T03:47:07.881Z,99.16
2018-12-07T03:51:25.159Z,99.15
2018-12-07T03:55:37.140Z,99.10
2018-12-07T03:59:59.593Z,99.12
2018-12-07T04:04:12.409Z,99.21
2018-12-07T04:08:29.804Z,98.94
2018-12-07T04:12:39.562Z,99.09
2018-12-07T04:16:52.210Z,98.98
2018-12-07T04:21:11.062Z,99.08
2018-12-07T04:25:27.114Z,99.03
2018-12-07T04:29:42.422Z,99.09
2018-12-07T04:33:53.128Z,99.11
2018-12-07T04:38:05.863Z,99.11
2018-12-07T04:42:14.884Z,99.21
2018-12-07T04:46:26.784Z,99.28
2018-12-07T04:50:40.439Z,99.21
2018-12-07T04:54:56.148Z,99.37
2018-12-07T04:59:05.670Z,99.48
2018-12-07T05:03:26.262Z,99.53
2018-12-07T05:07:35.557Z,99.46
2018-12-07T05:11:44.987Z,99.54
2018-12-07T05:15:57.689Z,99.46
2018-12-07T05:20:17.957Z,99.46
2018-12-07T05:24:34.501Z,99.39
2018-12-07T05:28:52.943Z,99.31
2018-12-07T05:33:08.345Z,99.35
2018-12-07T05:37:24.295Z,99.54
2018-12-07T05:41:40.569Z,99.47
2018-12-07T05:45:55.812Z,99.72
2018-12-07T05:50:03.460Z,99.57
2018-12-07T05:54:17.093Z,99.54
2018-12-07T05:58:34.087Z,99.53
2018-12-07T06:02:44.004Z,99.44
2018-12-07T06:06:52.969Z,99.45
2018-12-07T06:11:09.350Z,99.31
2018-12-07T06:15:21.149Z,99.23
2018-12-07T06:19:30.282Z,99.36
2018-12-07T06:23:46.379Z,99.31
2018-12-07T06:27:57.713Z,99.34
2018-12-07T06:32:07.150Z,99.36
2018-12-07T06:36:21.680Z,99.22
2018-12-07T06:40:38.803Z,99.26
2018-12-07T06:44:54.986Z,99.18
2018-12-07T06:49:27.886Z,99.47
2018-12-07T06:53:40.535Z,99.25
2018-12-07T06:57:56.989Z,99.38
2018-12-07T07:02:07.269Z,99.58
2018-12-07T07:06:20.809Z,99.53
2018-12-07T07:10:30.691Z,99.27
2018-12-07T07:14:46.247Z,99.34
2018-12-07T07:18:57.127Z,99.21
2018-12-07T07:23:06.292Z,99.21
2018-12-07T07:27:19.204Z,99.35
2018-12-07T07:31:30.122Z,99.61
2018-12-07T07:35:40.173Z,99.25
2018-12-07T07:39:50.114Z,99.07
2018-12-07T07:44:01.804Z,99.45
2018-12-07T07:48:13.541Z,99.35
2018-12-07T07:52:25.276Z,99.54
2018-12-07T07:56:36.926Z,99.46
2018-12-07T08:00:50.603Z,99.47
2018-12-07T08:05:03.303Z,99.40
2018-12-07T08:09:16.677Z,99.52
2018-12-07T08:13:31.109Z,99.51
2018-12-07T08:17:46.830Z,99.42
2018-12-07T08:21:59.592Z,99.27
2018-12-07T08:26:10.698Z,99.32
2018-12-07T08:30:26.617Z,99.36
2018-12-07T08:34:43.891Z,99.26
2018-12-07T08:38:59.170Z,99.22
2018-12-07T08:43:16.489Z,98.98
2018-12-07T08:47:27.272Z,98.87
2018-12-07T08:51:48.133Z,98.95
2018-12-07T08:56:00.747Z,98.41
2018-12-07T09:00:17.483Z,98.90
